MMPR

Licenciado Gustavo Díaz Ordaz International Airport

Airport
ICAO code
MMPR
IATA Code
PVR
Summary
ICAO Region
CARSAM
ICAO Territory
Location

Puerto Vallarta, Jalisco

Serving
Puerto Vallarta
Elevation
23 ft
Coordinates
20° 40' 48" N , 105° 15' 15" W
KCC
Aw
Metar
Observation
MMPR 131648Z 36003KT 15SM BKN250 30/23 A2997 RMK 8/009 MDT TCU ALQDS AND CS
Station
Puerto Vallarta / Lic
Date/Time
2022-08-13 16:48:00
Wind direction
360°
Wind speed
03 kts
Lowest cloud amount
broken clouds
Temperature
30°C
Dew point
23°C
Humidity
66%
Weather condition
n/a

International airport 2 nm north west of Puerto Vallarta, Mexico.

Climatology

Tropical Savanna climate (Köppen climate classification Aw)

Runways

Designator Length Width Surface Rops
4/22 3100 45 ASP Yes/Yes

Airport map

Aerial View

SKYbrary Partners:

Safety knowledge contributed by: